KSUW/SUW METAR and TAF weather

Enter ICAO airport designator
Station Type Date Time Source
KSUW METAR 2024/06/14 21:15 UTC NOAA

KSUW 142115Z AUTO 04006KT 10SM CLR 15/10 A3008 RMK AO2 T01520096


Station Type Date Time Source
KSUW Decoded METAR 2024/06/14 21:15 UTC NOAA

Superior, Richard I. Bong Airport, WI, United States (KSUW) 46-41-23N 092-05-41W
Jun 14, 2024 - 05:15 PM EDT / 2024.06.14 2115 UTC
Wind: from the NE (040 degrees) at 7 MPH (6 KT):0
Visibility: 10 mile(s):0
Sky conditions: clear
Temperature: 59.4 F (15.2 C)
Dew Point: 49.3 F (9.6 C)
Relative Humidity: 69%
Pressure (altimeter): 30.08 in. Hg (1018 hPa)
ob: KSUW 142115Z AUTO 04006KT 10SM CLR 15/10 A3008 RMK AO2 T01520096
cycle: 21

Station Type Date Time Source
KSUW TAF UTC NOAA

Error!

Example: see airport list